Time;durP1;ratioP1;P1;durP2;ratioP2;P2;SDS_P1;SDS_P2;PMS_P1;PMS_P2;Temp;Humidity;BMP_temperature;BMP_pressure;BME280_temperature;BME280_humidity;BME280_pressure;Samples;Min_cycle;Max_cycle;Signal;HPM_P1;HPM_P2
2023/05/18 00:00:22;;;;;;;8.43;1.80;;;8.40;99.90;;;;;;5037477;28;20863;-63
2023/05/18 00:02:49;;;;;;;7.23;2.20;;;8.50;99.90;;;;;;5032575;28;20593;-63
2023/05/18 00:05:18;;;;;;;6.40;2.00;;;8.50;99.90;;;;;;5022873;28;20460;-62
2023/05/18 00:07:45;;;;;;;7.37;2.23;;;8.40;99.90;;;;;;5038124;28;20224;-63
2023/05/18 00:10:12;;;;;;;7.38;2.13;;;8.40;99.90;;;;;;5027238;28;20623;-63
2023/05/18 00:12:39;;;;;;;13.13;1.83;;;8.40;99.90;;;;;;5012923;28;20506;-63
2023/05/18 00:15:07;;;;;;;4.43;1.80;;;8.40;99.90;;;;;;5037883;28;20197;-63
2023/05/18 00:17:33;;;;;;;5.57;2.07;;;8.40;99.90;;;;;;5035435;28;20193;-63
2023/05/18 00:20:00;;;;;;;8.67;1.50;;;8.40;99.90;;;;;;5021258;28;20439;-63
2023/05/18 00:22:28;;;;;;;4.03;1.47;;;8.40;99.90;;;;;;5042206;28;20200;-63
2023/05/18 00:24:55;;;;;;;8.30;1.70;;;8.40;99.90;;;;;;5023955;28;20211;-63
2023/05/18 00:27:22;;;;;;;4.70;1.60;;;8.40;99.90;;;;;;5014217;28;20213;-63
2023/05/18 00:29:49;;;;;;;8.13;2.05;;;8.40;99.90;;;;;;5040468;28;20204;-63
2023/05/18 00:32:15;;;;;;;4.07;1.73;;;8.40;99.90;;;;;;5039887;28;20405;-63
2023/05/18 00:34:42;;;;;;;8.57;1.60;;;8.40;99.90;;;;;;5036752;28;20207;-62
2023/05/18 00:37:09;;;;;;;7.17;2.10;;;8.40;99.90;;;;;;5022620;28;20506;-63
2023/05/18 00:39:37;;;;;;;8.67;2.03;;;8.50;99.90;;;;;;5024908;28;20201;-63
2023/05/18 00:42:05;;;;;;;5.60;1.70;;;8.40;99.90;;;;;;5005934;28;20582;-63
2023/05/18 00:44:31;;;;;;;4.40;1.70;;;8.40;99.90;;;;;;5035796;28;20196;-63
2023/05/18 00:46:59;;;;;;;4.97;1.67;;;8.50;99.90;;;;;;5032990;28;20468;-63
2023/05/18 00:49:26;;;;;;;3.70;1.73;;;8.40;99.90;;;;;;5042781;28;20201;-63
2023/05/18 00:51:54;;;;;;;7.40;1.97;;;8.40;99.90;;;;;;5020314;28;20236;-63
2023/05/18 00:54:21;;;;;;;8.50;1.70;;;8.50;99.90;;;;;;5040416;28;20201;-63
2023/05/18 00:56:49;;;;;;;5.25;1.75;;;8.50;99.90;;;;;;5017206;28;20211;-63
2023/05/18 00:59:17;;;;;;;5.78;1.33;;;8.50;99.90;;;;;;5026888;28;20621;-63
2023/05/18 01:01:45;;;;;;;4.93;1.70;;;8.40;99.90;;;;;;5040030;28;20220;-63
2023/05/18 01:04:12;;;;;;;7.25;1.63;;;8.40;99.90;;;;;;5038107;28;20410;-63
2023/05/18 01:06:40;;;;;;;4.43;1.70;;;8.40;99.90;;;;;;5037761;28;20197;-63
2023/05/18 01:09:10;;;;;;;8.55;1.80;;;8.40;99.90;;;;;;5036969;28;20334;-63
2023/05/18 01:11:50;;;;;;;6.80;2.60;;;8.50;99.90;;;;;;5021912;28;20853;-62
2023/05/18 01:14:25;;;;;;;4.70;2.00;;;8.50;99.90;;;;;;5011047;28;20205;-63
2023/05/18 01:16:56;;;;;;;7.80;2.03;;;8.40;99.90;;;;;;5040316;28;20297;-63
2023/05/18 01:19:51;;;;;;;8.90;1.73;;;8.40;99.90;;;;;;5031429;28;20204;-63
2023/05/18 01:22:33;;;;;;;3.50;1.25;;;8.40;99.90;;;;;;5020122;28;20228;-63
2023/05/18 01:25:05;;;;;;;6.00;1.40;;;8.40;99.90;;;;;;5036368;28;21132;-63
2023/05/18 01:27:36;;;;;;;5.90;1.55;;;8.30;99.90;;;;;;5014846;28;20228;-63
2023/05/18 01:30:04;;;;;;;12.77;5.03;;;8.30;99.90;;;;;;5038450;28;20205;-63
2023/05/18 01:32:31;;;;;;;2.63;1.80;;;8.30;99.90;;;;;;5039829;28;20205;-63
2023/05/18 01:34:57;;;;;;;4.53;2.22;;;8.30;99.90;;;;;;5033772;28;20795;-63
2023/05/18 01:37:24;;;;;;;5.90;1.52;;;8.30;99.90;;;;;;5029569;28;20201;-63
2023/05/18 01:39:51;;;;;;;7.32;1.33;;;8.40;99.90;;;;;;5038634;28;20384;-63
2023/05/18 01:42:23;;;;;;;7.20;1.77;;;8.40;99.90;;;;;;5030664;28;20231;-63
2023/05/18 01:44:57;;;;;;;5.33;1.63;;;8.30;99.90;;;;;;5013130;28;20205;-63
2023/05/18 01:47:27;;;;;;;6.33;2.07;;;8.40;99.90;;;;;;5040517;28;20248;-63
2023/05/18 01:49:59;;;;;;;5.40;2.07;;;8.30;99.90;;;;;;5038471;28;20429;-63
2023/05/18 01:52:32;;;;;;;10.57;2.10;;;8.30;99.90;;;;;;5042616;28;20197;-63
2023/05/18 01:55:03;;;;;;;2.00;1.50;;;8.30;99.90;;;;;;5032456;28;20352;-63
2023/05/18 01:57:32;;;;;;;8.15;1.80;;;8.30;99.90;;;;;;5021750;28;20607;-63
2023/05/18 02:00:03;;;;;;;4.47;1.87;;;8.30;99.90;;;;;;5007555;28;20212;-63
2023/05/18 02:02:30;;;;;;;2.17;1.50;;;8.30;99.90;;;;;;5035935;28;20709;-63
2023/05/18 02:04:57;;;;;;;13.47;2.27;;;8.30;99.90;;;;;;5033987;28;20196;-63
2023/05/18 02:07:23;;;;;;;11.97;2.07;;;8.30;99.90;;;;;;5041362;28;20594;-62
2023/05/18 02:09:50;;;;;;;9.55;2.45;;;8.30;99.90;;;;;;5025387;28;20842;-63
2023/05/18 02:12:17;;;;;;;9.82;1.90;;;8.20;99.90;;;;;;5030422;28;20411;-63
2023/05/18 02:14:44;;;;;;;4.83;1.97;;;8.20;99.90;;;;;;5010004;28;20212;-63
2023/05/18 02:17:12;;;;;;;5.67;1.87;;;8.20;99.90;;;;;;5035503;28;20211;-63
2023/05/18 02:19:39;;;;;;;6.23;2.00;;;8.20;99.90;;;;;;5034453;28;20212;-63
2023/05/18 02:22:06;;;;;;;2.70;1.60;;;8.20;99.90;;;;;;5033933;28;20438;-63
2023/05/18 02:24:34;;;;;;;4.72;1.52;;;8.20;99.90;;;;;;5025244;28;20201;-63
2023/05/18 02:27:01;;;;;;;4.60;1.90;;;8.30;99.90;;;;;;5027472;28;20623;-63
2023/05/18 02:29:28;;;;;;;8.27;1.60;;;8.20;99.90;;;;;;5040210;28;20337;-63
2023/05/18 02:31:54;;;;;;;5.60;2.20;;;8.20;99.90;;;;;;5007253;28;20299;-63
2023/05/18 02:34:23;;;;;;;8.70;2.33;;;8.10;99.90;;;;;;5035155;28;20220;-63
2023/05/18 02:36:50;;;;;;;7.53;2.25;;;8.10;99.90;;;;;;5040211;28;20295;-63
2023/05/18 02:39:17;;;;;;;4.60;1.70;;;8.10;99.90;;;;;;5023754;28;20821;-63
2023/05/18 02:41:43;;;;;;;7.85;2.10;;;8.10;99.90;;;;;;5036805;28;20220;-63
2023/05/18 02:44:11;;;;;;;7.25;2.15;;;8.10;99.90;;;;;;5025961;28;20200;-63
2023/05/18 02:46:38;;;;;;;6.28;2.35;;;8.10;99.90;;;;;;5006181;28;20216;-63
2023/05/18 02:49:05;;;;;;;6.03;2.00;;;8.10;99.90;;;;;;5029551;28;20629;-63
2023/05/18 02:51:33;;;;;;;4.43;2.13;;;8.10;99.90;;;;;;5034017;28;20198;-63
2023/05/18 02:54:00;;;;;;;6.83;2.70;;;8.10;99.90;;;;;;5030729;28;24266;-63
2023/05/18 02:56:27;;;;;;;8.90;2.57;;;8.10;99.90;;;;;;5020598;28;20207;-63
2023/05/18 02:58:56;;;;;;;7.90;2.60;;;8.10;99.90;;;;;;5020060;28;20300;-63
2023/05/18 03:01:25;;;;;;;4.63;1.87;;;8.10;99.90;;;;;;5036991;28;20318;-63
2023/05/18 03:03:52;;;;;;;3.47;1.90;;;8.10;99.90;;;;;;5005851;28;20209;-63
2023/05/18 03:06:22;;;;;;;7.23;2.17;;;8.00;99.90;;;;;;5039853;28;20404;-63
2023/05/18 03:08:53;;;;;;;5.38;2.40;;;8.10;99.90;;;;;;5034182;28;20208;-63
2023/05/18 03:11:20;;;;;;;8.33;2.20;;;8.10;99.90;;;;;;5020329;28;20349;-63
2023/05/18 03:13:47;;;;;;;7.00;2.20;;;8.10;99.90;;;;;;5038119;28;20275;-62
2023/05/18 03:16:13;;;;;;;7.67;1.87;;;8.10;99.90;;;;;;5025593;28;20232;-63
2023/05/18 03:18:40;;;;;;;9.03;1.70;;;8.10;99.90;;;;;;5010633;28;20209;-63
2023/05/18 03:21:07;;;;;;;3.10;2.00;;;8.00;99.90;;;;;;5034514;28;20253;-63
2023/05/18 03:23:34;;;;;;;4.80;2.00;;;8.00;99.90;;;;;;5033581;28;20465;-63
2023/05/18 03:26:02;;;;;;;8.70;2.10;;;8.00;99.90;;;;;;5025319;28;20196;-63
2023/05/18 03:28:29;;;;;;;4.87;1.80;;;8.10;99.90;;;;;;5041202;28;20312;-63
2023/05/18 03:30:56;;;;;;;2.67;1.93;;;8.00;99.90;;;;;;5031595;28;20228;-63
2023/05/18 03:33:23;;;;;;;3.25;1.90;;;8.00;99.90;;;;;;5011443;28;20217;-63
2023/05/18 03:35:51;;;;;;;3.73;1.80;;;7.90;99.90;;;;;;5036804;28;20204;-63
2023/05/18 03:38:18;;;;;;;4.93;1.83;;;7.90;99.90;;;;;;5042006;28;20703;-63
2023/05/18 03:40:45;;;;;;;5.20;2.00;;;7.90;99.90;;;;;;5034171;28;20232;-63
2023/05/18 03:43:13;;;;;;;7.43;2.40;;;8.00;99.90;;;;;;5024758;28;20257;-63
2023/05/18 03:45:40;;;;;;;4.13;2.30;;;8.00;99.90;;;;;;5025432;28;20738;-63
2023/05/18 03:48:06;;;;;;;2.20;1.70;;;8.00;99.90;;;;;;5007208;28;20394;-63
2023/05/18 03:50:33;;;;;;;6.90;2.25;;;8.00;99.90;;;;;;5038220;28;20196;-63
2023/05/18 03:53:00;;;;;;;9.53;2.50;;;8.00;99.90;;;;;;5034191;28;20224;-63
2023/05/18 03:55:28;;;;;;;10.13;3.13;;;7.90;99.90;;;;;;5030077;28;20291;-62
2023/05/18 03:57:57;;;;;;;11.50;2.60;;;7.90;99.90;;;;;;5025349;28;20296;-63
2023/05/18 04:00:26;;;;;;;4.90;2.27;;;8.00;99.90;;;;;;5025124;28;20301;-63
2023/05/18 04:02:52;;;;;;;7.60;2.10;;;8.00;99.90;;;;;;5025334;28;20625;-63
2023/05/18 04:05:19;;;;;;;6.53;2.47;;;8.00;99.90;;;;;;5003707;28;21510;-63
2023/05/18 04:07:46;;;;;;;3.30;2.13;;;7.90;99.90;;;;;;5037347;28;20200;-63
2023/05/18 04:10:13;;;;;;;7.93;2.47;;;7.90;99.90;;;;;;5019896;28;20295;-62
2023/05/18 04:12:40;;;;;;;9.90;2.43;;;8.00;99.90;;;;;;5040568;28;20290;-63
2023/05/18 04:15:09;;;;;;;5.57;2.47;;;8.00;99.90;;;;;;5013808;28;20562;-63
2023/05/18 04:17:38;;;;;;;3.40;1.70;;;8.00;99.90;;;;;;5030287;28;20487;-63
2023/05/18 04:20:12;;;;;;;11.50;2.63;;;8.10;99.90;;;;;;5002588;28;20209;-63
2023/05/18 04:22:45;;;;;;;6.93;2.73;;;8.00;99.90;;;;;;5038099;28;20754;-66
2023/05/18 04:25:12;;;;;;;5.20;2.00;;;8.10;99.90;;;;;;5025709;28;22956;-63
2023/05/18 04:27:40;;;;;;;5.67;2.13;;;8.10;99.90;;;;;;5036142;28;20200;-64
2023/05/18 04:30:09;;;;;;;6.17;2.37;;;8.10;99.90;;;;;;5018362;28;20911;-63
2023/05/18 04:32:37;;;;;;;6.22;2.10;;;8.10;99.90;;;;;;5026485;28;20252;-62
2023/05/18 04:35:06;;;;;;;7.67;2.40;;;8.20;99.90;;;;;;5007657;28;21697;-63
2023/05/18 04:37:33;;;;;;;4.57;2.33;;;8.20;99.90;;;;;;5033955;28;20225;-63
2023/05/18 04:40:00;;;;;;;10.60;3.10;;;8.20;99.90;;;;;;5026625;28;20216;-63
2023/05/18 04:42:28;;;;;;;4.70;2.40;;;8.10;99.90;;;;;;5030875;28;20231;-63
2023/05/18 04:44:54;;;;;;;11.13;2.72;;;8.10;99.90;;;;;;5022905;28;20220;-63
2023/05/18 04:47:22;;;;;;;7.63;3.20;;;8.10;99.90;;;;;;5022832;28;20464;-63
2023/05/18 04:49:51;;;;;;;5.43;2.67;;;8.10;99.90;;;;;;5034789;28;20197;-63
2023/05/18 04:52:19;;;;;;;8.77;3.33;;;8.10;99.90;;;;;;5007099;28;20955;-63
2023/05/18 04:54:46;;;;;;;16.33;4.43;;;8.20;99.90;;;;;;5036326;28;20200;-63
2023/05/18 04:57:13;;;;;;;10.93;3.83;;;8.20;99.90;;;;;;5024548;28;21253;-63
2023/05/18 04:59:41;;;;;;;9.40;3.08;;;8.20;99.90;;;;;;5035698;28;20198;-63
2023/05/18 05:02:08;;;;;;;7.30;2.55;;;8.30;99.90;;;;;;4999188;28;20235;-63
2023/05/18 05:04:35;;;;;;;6.90;2.90;;;8.30;99.90;;;;;;5023544;28;20196;-63
2023/05/18 05:07:03;;;;;;;8.05;2.80;;;8.40;99.90;;;;;;4995691;28;20313;-63
2023/05/18 05:09:30;;;;;;;10.73;2.00;;;8.40;99.90;;;;;;5027264;28;20201;-63
2023/05/18 05:11:56;;;;;;;4.20;2.03;;;8.40;99.90;;;;;;5030198;28;20571;-63
2023/05/18 05:14:23;;;;;;;3.65;2.38;;;8.40;99.90;;;;;;5038001;28;20200;-63
2023/05/18 05:16:50;;;;;;;8.07;2.50;;;8.40;99.90;;;;;;5016354;28;20420;-63
2023/05/18 05:19:17;;;;;;;6.97;2.33;;;8.40;99.90;;;;;;5025375;28;20210;-63
2023/05/18 05:21:43;;;;;;;5.40;2.05;;;8.40;99.90;;;;;;5023877;28;20220;-63
2023/05/18 05:24:11;;;;;;;2.50;1.73;;;8.40;99.90;;;;;;5006154;28;20521;-63
2023/05/18 05:26:38;;;;;;;2.90;2.13;;;8.40;99.90;;;;;;5020738;28;20276;-63
2023/05/18 05:29:05;;;;;;;4.67;1.93;;;8.50;99.90;;;;;;5029491;28;20210;-63
2023/05/18 05:31:33;;;;;;;6.90;2.28;;;8.50;99.90;;;;;;5014755;28;20847;-63
2023/05/18 05:34:00;;;;;;;5.40;2.00;;;8.60;99.90;;;;;;5018399;28;20205;-63
2023/05/18 05:36:27;;;;;;;8.80;2.38;;;8.70;99.90;;;;;;5033445;28;20242;-63
2023/05/18 05:38:53;;;;;;;6.68;2.75;;;8.70;99.90;;;;;;5001223;28;20228;-63
2023/05/18 05:41:22;;;;;;;10.95;2.45;;;8.70;99.90;;;;;;5040356;28;20207;-63
2023/05/18 05:43:49;;;;;;;5.47;1.90;;;8.70;99.90;;;;;;5036353;28;21061;-63
2023/05/18 05:46:16;;;;;;;3.63;2.10;;;8.70;99.90;;;;;;5034886;28;20206;-63
2023/05/18 05:48:42;;;;;;;3.38;1.83;;;8.70;99.90;;;;;;5010635;28;20430;-63
2023/05/18 05:51:09;;;;;;;9.43;2.10;;;8.80;99.90;;;;;;5043651;28;20209;-63
2023/05/18 05:53:36;;;;;;;6.40;2.17;;;8.80;99.90;;;;;;5003485;28;20424;-63
2023/05/18 05:56:03;;;;;;;7.17;2.00;;;8.80;99.90;;;;;;5021827;28;20516;-63
2023/05/18 05:58:31;;;;;;;9.38;2.05;;;8.80;99.90;;;;;;5034065;28;20314;-63
2023/05/18 06:00:58;;;;;;;6.30;2.20;;;8.80;99.90;;;;;;5039765;28;20224;-63
2023/05/18 06:03:25;;;;;;;7.28;2.42;;;8.80;99.90;;;;;;5024787;28;20681;-63
2023/05/18 06:05:52;;;;;;;2.65;2.33;;;8.90;99.90;;;;;;5025841;28;20208;-63
2023/05/18 06:08:19;;;;;;;5.70;2.58;;;8.80;99.90;;;;;;4983143;28;21760;-63
2023/05/18 06:10:46;;;;;;;7.05;2.00;;;8.90;99.90;;;;;;5027553;28;21073;-63
2023/05/18 06:13:13;;;;;;;5.95;2.70;;;9.00;99.90;;;;;;5030701;28;20202;-63
2023/05/18 06:15:41;;;;;;;6.13;2.20;;;9.00;99.90;;;;;;5041093;28;20243;-63
2023/05/18 06:18:08;;;;;;;7.13;2.10;;;9.00;99.90;;;;;;5029210;28;20196;-63
2023/05/18 06:20:35;;;;;;;6.63;2.38;;;9.00;99.90;;;;;;5034331;28;20236;-63
2023/05/18 06:23:01;;;;;;;4.88;2.08;;;9.10;99.90;;;;;;5038836;28;20227;-63
2023/05/18 06:25:28;;;;;;;3.90;1.90;;;9.10;99.90;;;;;;5005096;28;20216;-63
2023/05/18 06:27:55;;;;;;;5.93;2.30;;;9.10;99.90;;;;;;5030668;28;20211;-63
2023/05/18 06:30:22;;;;;;;5.00;1.88;;;9.10;99.90;;;;;;5031276;28;20201;-63
2023/05/18 06:32:50;;;;;;;3.58;1.80;;;9.20;99.90;;;;;;5038377;28;20228;-63
2023/05/18 06:35:17;;;;;;;7.53;1.95;;;9.20;99.90;;;;;;5007352;28;20197;-63
2023/05/18 06:37:44;;;;;;;3.60;1.83;;;9.20;99.90;;;;;;5040412;28;20192;-63
2023/05/18 06:40:11;;;;;;;5.57;1.90;;;9.20;99.90;;;;;;5013855;28;20208;-63
2023/05/18 06:42:37;;;;;;;7.20;2.22;;;9.20;99.90;;;;;;5033213;28;20791;-63
2023/05/18 06:45:05;;;;;;;9.00;2.50;;;9.30;99.90;;;;;;5032546;28;20229;-63
2023/05/18 06:47:32;;;;;;;4.30;2.00;;;9.30;99.90;;;;;;5026740;28;20233;-63
2023/05/18 06:50:00;;;;;;;4.65;2.08;;;9.30;99.90;;;;;;4998267;28;20216;-63
2023/05/18 06:52:27;;;;;;;7.63;2.10;;;9.20;99.90;;;;;;5039288;28;20227;-63
2023/05/18 06:54:54;;;;;;;11.38;2.13;;;9.20;99.90;;;;;;5003368;28;20247;-63
2023/05/18 06:57:20;;;;;;;4.93;1.90;;;9.30;99.90;;;;;;5034682;28;20682;-63
2023/05/18 06:59:52;;;;;;;13.48;1.92;;;9.30;99.90;;;;;;5024992;28;20224;-63
2023/05/18 07:02:19;;;;;;;4.72;2.33;;;9.30;99.90;;;;;;5018952;28;20674;-63
2023/05/18 07:04:46;;;;;;;5.65;1.90;;;9.40;99.90;;;;;;5023114;28;20217;-63
2023/05/18 07:07:15;;;;;;;5.00;1.63;;;9.40;99.90;;;;;;5020827;28;20796;-63
2023/05/18 07:09:44;;;;;;;4.25;1.90;;;9.40;99.90;;;;;;4997509;28;20248;-63
2023/05/18 07:12:11;;;;;;;4.28;1.58;;;9.40;99.90;;;;;;5027789;28;20360;-63
2023/05/18 07:14:37;;;;;;;5.75;2.03;;;9.40;99.90;;;;;;5026288;28;20221;-63
2023/05/18 07:17:05;;;;;;;3.38;2.00;;;9.40;99.90;;;;;;5037086;28;20529;-63
2023/05/18 07:19:33;;;;;;;5.15;2.05;;;9.50;99.90;;;;;;5040023;28;20224;-63
2023/05/18 07:21:59;;;;;;;5.30;1.92;;;9.50;99.90;;;;;;5011995;28;20227;-63
2023/05/18 07:24:27;;;;;;;3.45;1.60;;;9.50;99.90;;;;;;5037363;28;20228;-63
2023/05/18 07:26:54;;;;;;;6.90;2.30;;;9.50;99.90;;;;;;5002298;28;20213;-63
2023/05/18 07:29:21;;;;;;;7.60;1.98;;;9.50;99.90;;;;;;5017284;28;20225;-63
2023/05/18 07:31:48;;;;;;;8.63;1.92;;;9.60;99.90;;;;;;5020935;28;20211;-63
2023/05/18 07:34:14;;;;;;;5.85;2.05;;;9.60;99.90;;;;;;5020655;28;20221;-63
2023/05/18 07:36:41;;;;;;;7.00;1.70;;;9.60;99.90;;;;;;5009960;28;20209;-63
2023/05/18 07:39:09;;;;;;;2.38;1.58;;;9.60;99.90;;;;;;5018737;28;20221;-63
2023/05/18 07:41:37;;;;;;;6.82;1.80;;;9.60;99.90;;;;;;5006707;28;20232;-62
2023/05/18 07:44:04;;;;;;;5.20;1.60;;;9.70;99.90;;;;;;5038426;22;20221;-63
2023/05/18 07:46:31;;;;;;;5.50;1.90;;;9.70;99.90;;;;;;5055571;28;20637;-63
2023/05/18 07:48:57;;;;;;;5.22;2.42;;;9.70;99.90;;;;;;5052136;28;20192;-63
2023/05/18 07:51:24;;;;;;;7.50;1.70;;;9.70;99.90;;;;;;5043557;28;20421;-63
2023/05/18 07:53:51;;;;;;;5.13;1.95;;;9.80;99.90;;;;;;5050226;28;20220;-63
2023/05/18 07:56:18;;;;;;;10.20;2.55;;;9.80;99.90;;;;;;5004990;28;20587;-64
2023/05/18 07:58:46;;;;;;;7.20;2.08;;;9.80;99.90;;;;;;5056872;28;20730;-63
2023/05/18 08:01:12;;;;;;;3.83;2.05;;;9.80;99.90;;;;;;5043461;28;20433;-63
2023/05/18 08:03:40;;;;;;;5.25;2.00;;;9.80;99.90;;;;;;5050858;28;20684;-63
2023/05/18 08:06:07;;;;;;;6.72;2.47;;;9.80;99.90;;;;;;5043555;28;20301;-63
2023/05/18 08:08:36;;;;;;;10.63;2.70;;;9.90;99.90;;;;;;5019441;28;20230;-63
2023/05/18 08:11:03;;;;;;;11.57;2.67;;;9.90;99.90;;;;;;5057733;28;20216;-63
2023/05/18 08:13:30;;;;;;;7.43;1.95;;;9.90;99.90;;;;;;5019063;28;20208;-63
2023/05/18 08:15:58;;;;;;;4.15;1.75;;;10.00;99.90;;;;;;5040738;28;20207;-63
2023/05/18 08:18:25;;;;;;;2.92;1.80;;;10.00;99.90;;;;;;5057493;28;20200;-62
2023/05/18 08:20:52;;;;;;;3.92;2.00;;;9.90;99.90;;;;;;5055584;28;20231;-62
2023/05/18 08:23:19;;;;;;;4.32;2.28;;;10.00;99.90;;;;;;5029786;28;20227;-64
2023/05/18 08:25:46;;;;;;;4.85;2.17;;;10.10;99.90;;;;;;5052196;28;20208;-63
2023/05/18 08:28:13;;;;;;;5.22;2.03;;;10.10;99.90;;;;;;5019633;28;20539;-62
2023/05/18 08:30:40;;;;;;;2.75;1.58;;;10.00;99.90;;;;;;5039795;28;20227;-62
2023/05/18 08:33:08;;;;;;;4.78;2.40;;;9.90;99.90;;;;;;5042018;28;21698;-63
2023/05/18 08:35:35;;;;;;;4.60;1.73;;;9.90;99.90;;;;;;5044623;28;20522;-63
2023/05/18 08:38:01;;;;;;;7.95;1.85;;;10.00;99.90;;;;;;5019619;28;20913;-62
2023/05/18 08:40:36;;;;;;;5.97;1.92;;;9.90;99.90;;;;;;5050578;28;20671;-63
2023/05/18 08:43:12;;;;;;;4.10;1.95;;;10.10;99.90;;;;;;5014429;28;20776;-63
2023/05/18 08:45:43;;;;;;;5.10;1.73;;;10.20;99.90;;;;;;5042309;28;20219;-63
2023/05/18 08:48:12;;;;;;;4.95;2.00;;;10.10;99.90;;;;;;5051000;28;20903;-63
2023/05/18 08:50:41;;;;;;;4.22;2.35;;;10.20;99.90;;;;;;5045636;28;20205;-63
2023/05/18 08:53:10;;;;;;;6.03;1.95;;;10.20;99.90;;;;;;5032824;28;20228;-63
2023/05/18 08:55:38;;;;;;;10.20;2.20;;;10.40;99.90;;;;;;5039174;28;20219;-63
2023/05/18 08:58:09;;;;;;;4.82;2.10;;;10.50;99.90;;;;;;5019767;28;20408;-63
2023/05/18 09:00:36;;;;;;;6.65;2.00;;;10.60;99.90;;;;;;5057632;28;20216;-62
2023/05/18 09:03:05;;;;;;;7.60;1.92;;;10.70;99.90;;;;;;5040998;28;20231;-64
2023/05/18 09:05:33;;;;;;;14.60;2.28;;;10.80;99.90;;;;;;5046702;28;20204;-63
2023/05/18 09:08:00;;;;;;;4.43;1.83;;;10.80;99.90;;;;;;5010682;28;20227;-62
2023/05/18 09:10:28;;;;;;;3.22;1.90;;;10.90;99.90;;;;;;5046938;28;20250;-63
2023/05/18 09:12:56;;;;;;;6.40;2.05;;;11.00;99.90;;;;;;5000057;28;20228;-63
2023/05/18 09:15:24;;;;;;;8.43;2.58;;;10.90;99.90;;;;;;5045251;28;20220;-62
2023/05/18 09:17:50;;;;;;;6.38;1.88;;;10.80;99.90;;;;;;5051333;28;20226;-62
2023/05/18 09:20:19;;;;;;;7.20;2.00;;;10.80;99.90;;;;;;5055043;28;20248;-63
2023/05/18 09:22:50;;;;;;;6.00;2.53;;;10.70;99.90;;;;;;5040768;28;20875;-62
2023/05/18 09:25:18;;;;;;;7.40;2.00;;;10.80;99.90;;;;;;5025023;28;20799;-63
2023/05/18 09:27:45;;;;;;;5.68;2.78;;;10.90;99.90;;;;;;5049622;28;20207;-63
2023/05/18 09:30:13;;;;;;;5.45;2.00;;;11.00;99.90;;;;;;5030827;28;21870;-66
2023/05/18 09:32:39;;;;;;;8.88;2.28;;;11.20;99.90;;;;;;5030939;28;20220;-63
2023/05/18 09:35:08;;;;;;;4.28;1.70;;;11.10;99.90;;;;;;5060109;28;20747;-63
2023/05/18 09:37:35;;;;;;;5.07;2.40;;;11.10;99.90;;;;;;5049183;28;20217;-63
2023/05/18 09:40:06;;;;;;;6.13;2.13;;;11.20;99.90;;;;;;5041944;28;20418;-63
2023/05/18 09:42:36;;;;;;;11.75;2.20;;;11.10;99.90;;;;;;5043781;28;20304;-63
2023/05/18 09:45:03;;;;;;;8.00;2.08;;;11.20;99.90;;;;;;5003787;28;20231;-63
2023/05/18 09:47:30;;;;;;;6.38;2.67;;;11.20;99.90;;;;;;5058886;28;20849;-63
2023/05/18 09:49:57;;;;;;;6.82;1.67;;;11.40;99.90;;;;;;5060050;22;20568;-64
2023/05/18 09:52:25;;;;;;;2.60;1.90;;;11.50;99.90;;;;;;5015473;28;20198;-63
2023/05/18 09:54:59;;;;;;;9.13;2.58;;;11.60;99.90;;;;;;5000160;28;20233;-63
2023/05/18 09:57:27;;;;;;;3.88;2.10;;;11.60;99.90;;;;;;4993088;28;20902;-63
2023/05/18 10:00:06;;;;;;;5.90;1.90;;;11.50;99.90;;;;;;4979887;28;20614;-64
2023/05/18 10:02:37;;;;;;;4.38;2.20;;;11.50;99.90;;;;;;5006463;28;20251;-63
2023/05/18 10:05:04;;;;;;;5.80;1.75;;;11.50;99.90;;;;;;4999934;28;21730;-64
2023/05/18 10:07:34;;;;;;;6.32;1.88;;;11.60;99.90;;;;;;5013525;28;21035;-63
2023/05/18 10:10:02;;;;;;;4.75;2.17;;;11.60;99.90;;;;;;4953811;28;21157;-63
2023/05/18 10:12:30;;;;;;;2.65;1.80;;;11.80;99.90;;;;;;5006687;28;20710;-64
2023/05/18 10:14:57;;;;;;;4.63;1.98;;;11.70;99.90;;;;;;4995105;28;20201;-63
2023/05/18 10:17:26;;;;;;;6.88;2.00;;;11.80;99.90;;;;;;5025641;28;20212;-63
2023/05/18 10:19:55;;;;;;;4.00;1.90;;;11.90;99.90;;;;;;5020895;28;20193;-63
2023/05/18 10:22:23;;;;;;;2.33;1.60;;;11.90;99.90;;;;;;5025503;28;20202;-63
2023/05/18 10:24:51;;;;;;;5.05;1.92;;;11.90;99.90;;;;;;5016542;28;20741;-64
2023/05/18 10:27:24;;;;;;;3.00;1.88;;;11.90;99.90;;;;;;5017675;28;20198;-63
2023/05/18 10:29:53;;;;;;;5.78;2.13;;;11.80;99.90;;;;;;5011376;28;20206;-64
2023/05/18 10:32:22;;;;;;;6.53;2.20;;;11.80;99.90;;;;;;5015495;28;20502;-63
2023/05/18 10:34:52;;;;;;;4.10;1.83;;;12.00;99.90;;;;;;5023820;28;20368;-63
2023/05/18 10:37:22;;;;;;;2.38;1.80;;;11.70;99.90;;;;;;5022457;28;20686;-63
2023/05/18 10:39:50;;;;;;;8.68;2.45;;;11.60;99.90;;;;;;5021052;28;20200;-63
2023/05/18 10:42:18;;;;;;;7.80;2.38;;;11.60;99.90;;;;;;5011606;28;20886;-63
2023/05/18 10:44:48;;;;;;;4.18;1.90;;;11.70;99.90;;;;;;5084153;22;20513;-63
2023/05/18 10:47:16;;;;;;;3.10;1.80;;;11.90;99.90;;;;;;5028802;28;20201;-63
2023/05/18 10:49:43;;;;;;;9.23;2.15;;;11.90;99.90;;;;;;5068679;28;20200;-63
2023/05/18 10:52:12;;;;;;;5.93;1.77;;;11.90;99.90;;;;;;5058389;28;20204;-63
2023/05/18 10:54:41;;;;;;;4.53;1.88;;;12.00;99.90;;;;;;5068364;28;20246;-63
2023/05/18 10:57:11;;;;;;;3.83;1.88;;;12.10;99.90;;;;;;5051839;28;20204;-63
2023/05/18 10:59:40;;;;;;;2.42;1.92;;;12.10;99.90;;;;;;5063123;28;20336;-63
2023/05/18 11:02:08;;;;;;;5.80;2.08;;;12.00;99.90;;;;;;5033063;28;20585;-63
2023/05/18 11:04:39;;;;;;;7.30;2.10;;;12.00;99.90;;;;;;5066401;28;20322;-63
2023/05/18 11:07:11;;;;;;;7.07;2.00;;;12.20;99.90;;;;;;5059759;28;20261;-63
2023/05/18 11:09:41;;;;;;;7.47;1.90;;;12.30;99.90;;;;;;5068334;28;20847;-63
2023/05/18 11:12:12;;;;;;;4.13;2.25;;;12.20;99.90;;;;;;5066447;28;20700;-64
2023/05/18 11:14:48;;;;;;;7.50;1.98;;;12.10;99.90;;;;;;5055320;28;20196;-63
2023/05/18 11:17:19;;;;;;;8.27;2.40;;;12.10;99.90;;;;;;5035854;28;20537;-63
2023/05/18 11:20:16;;;;;;;4.88;1.98;;;12.00;99.90;;;;;;5063072;28;20200;-63
2023/05/18 11:22:46;;;;;;;4.05;2.10;;;12.10;99.90;;;;;;5058207;28;20200;-63
2023/05/18 11:25:44;;;;;;;3.72;1.95;;;12.10;99.90;;;;;;5067401;28;20227;-63
2023/05/18 11:28:13;;;;;;;6.18;1.92;;;12.20;99.90;;;;;;5050782;28;20216;-63
2023/05/18 11:30:47;;;;;;;6.43;2.80;;;12.10;99.90;;;;;;5063368;28;20317;-64
2023/05/18 11:33:16;;;;;;;4.90;2.50;;;12.30;99.90;;;;;;5031191;28;20210;-63
2023/05/18 11:35:57;;;;;;;7.28;2.90;;;12.30;99.90;;;;;;5068847;28;20219;-63
2023/05/18 11:38:42;;;;;;;6.07;1.98;;;12.30;99.90;;;;;;5056576;28;20407;-63
2023/05/18 11:41:30;;;;;;;5.85;2.30;;;12.30;99.90;;;;;;5068667;28;20201;-63
2023/05/18 11:44:15;;;;;;;5.82;2.63;;;12.40;99.90;;;;;;5055418;28;20981;-63
2023/05/18 11:46:52;;;;;;;5.85;2.00;;;12.50;99.90;;;;;;5040074;28;20195;-63
2023/05/18 11:49:22;;;;;;;6.57;2.22;;;12.50;99.90;;;;;;5064452;28;20192;-63
2023/05/18 11:51:57;;;;;;;7.82;2.10;;;12.40;99.90;;;;;;5063223;28;20223;-63
2023/05/18 11:54:25;;;;;;;7.95;2.53;;;12.40;99.90;;;;;;5053339;28;20234;-63
2023/05/18 11:56:52;;;;;;;6.97;2.33;;;12.40;99.90;;;;;;5063430;28;20244;-63
2023/05/18 11:59:30;;;;;;;6.22;2.50;;;12.30;99.90;;;;;;5049175;28;20328;-63
2023/05/18 12:01:59;;;;;;;8.30;2.40;;;12.50;99.90;;;;;;5047358;28;20234;-64
2023/05/18 12:04:26;;;;;;;7.65;2.42;;;12.50;99.90;;;;;;5057414;28;20325;-63
2023/05/18 12:06:53;;;;;;;4.30;2.28;;;12.60;99.90;;;;;;5064458;28;20200;-63
2023/05/18 12:09:22;;;;;;;6.20;2.10;;;12.60;99.90;;;;;;5054155;28;20401;-63
2023/05/18 12:11:50;;;;;;;4.00;2.10;;;12.60;99.90;;;;;;5064228;28;20675;-64
2023/05/18 12:14:18;;;;;;;3.63;1.90;;;12.60;99.90;;;;;;5049751;28;20946;-63
2023/05/18 12:16:47;;;;;;;5.43;2.63;;;12.50;99.90;;;;;;5062983;28;20205;-63
2023/05/18 12:19:14;;;;;;;6.05;2.15;;;12.60;99.90;;;;;;5019820;28;20342;-63
2023/05/18 12:21:41;;;;;;;6.22;2.80;;;12.70;99.90;;;;;;5067162;28;20196;-63
2023/05/18 12:24:08;;;;;;;8.73;2.60;;;12.80;99.90;;;;;;5040888;28;20263;-64
2023/05/18 12:26:37;;;;;;;5.63;2.30;;;12.80;99.90;;;;;;5065050;28;20550;-63
2023/05/18 12:29:04;;;;;;;5.80;2.40;;;12.80;99.90;;;;;;5046078;28;20211;-64
2023/05/18 12:31:31;;;;;;;4.05;2.30;;;12.80;99.90;;;;;;5066733;28;20226;-63
2023/05/18 12:34:01;;;;;;;5.65;2.25;;;13.00;99.90;;;;;;5035099;28;20227;-64
2023/05/18 12:36:28;;;;;;;11.43;2.58;;;12.90;99.90;;;;;;5061819;28;20679;-63
2023/05/18 12:38:54;;;;;;;5.38;3.17;;;12.90;99.90;;;;;;5050402;28;20641;-63
2023/05/18 12:41:26;;;;;;;6.22;2.50;;;13.00;99.90;;;;;;5048698;28;20295;-64
2023/05/18 12:43:55;;;;;;;5.50;2.58;;;13.10;99.90;;;;;;5052597;28;20201;-64
2023/05/18 12:46:23;;;;;;;4.82;2.40;;;13.20;99.90;;;;;;5070335;28;20714;-63
2023/05/18 12:48:58;;;;;;;5.97;2.40;;;13.40;99.90;;;;;;5037553;28;21934;-63
2023/05/18 12:51:29;;;;;;;3.75;2.28;;;13.30;99.90;;;;;;5067459;28;20200;-63
2023/05/18 12:53:56;;;;;;;5.65;2.60;;;13.50;99.90;;;;;;5065639;28;20192;-63
2023/05/18 12:56:24;;;;;;;3.55;2.40;;;13.60;99.90;;;;;;5057399;28;20701;-63
2023/05/18 12:58:58;;;;;;;7.65;2.55;;;13.60;99.90;;;;;;5051466;28;21769;-64